sensor_id;sensor_type;location;lat;lon;timestamp;P1;durP1;ratioP1;P2;durP2;ratioP2
59728;SDS011;45588;51.598;5.618;2022-07-25T00:02:01;27.23;;;20.67;;
59728;SDS011;45588;51.598;5.618;2022-07-25T00:04:26;24.25;;;21.67;;
59728;SDS011;45588;51.598;5.618;2022-07-25T00:06:52;25.67;;;20.35;;
59728;SDS011;45588;51.598;5.618;2022-07-25T00:09:17;22.05;;;19.73;;
59728;SDS011;45588;51.598;5.618;2022-07-25T00:11:43;20.45;;;18.38;;
59728;SDS011;45588;51.598;5.618;2022-07-25T00:14:08;22.95;;;20.55;;
59728;SDS011;45588;51.598;5.618;2022-07-25T00:16:33;24.92;;;21.90;;
59728;SDS011;45588;51.598;5.618;2022-07-25T00:18:59;23.90;;;20.98;;
59728;SDS011;45588;51.598;5.618;2022-07-25T00:21:24;23.25;;;19.65;;
59728;SDS011;45588;51.598;5.618;2022-07-25T00:23:49;25.15;;;22.00;;
59728;SDS011;45588;51.598;5.618;2022-07-25T00:26:15;23.55;;;21.25;;
59728;SDS011;45588;51.598;5.618;2022-07-25T00:28:41;26.48;;;23.05;;
59728;SDS011;45588;51.598;5.618;2022-07-25T00:31:07;22.20;;;19.48;;
59728;SDS011;45588;51.598;5.618;2022-07-25T00:33:32;25.15;;;22.40;;
59728;SDS011;45588;51.598;5.618;2022-07-25T00:35:57;23.83;;;21.33;;
59728;SDS011;45588;51.598;5.618;2022-07-25T00:38:23;26.10;;;22.55;;
59728;SDS011;45588;51.598;5.618;2022-07-25T00:40:48;24.58;;;22.30;;
59728;SDS011;45588;51.598;5.618;2022-07-25T00:43:13;22.98;;;20.63;;
59728;SDS011;45588;51.598;5.618;2022-07-25T00:45:39;24.08;;;21.70;;
59728;SDS011;45588;51.598;5.618;2022-07-25T00:48:04;23.52;;;21.15;;
59728;SDS011;45588;51.598;5.618;2022-07-25T00:50:31;23.27;;;20.90;;
59728;SDS011;45588;51.598;5.618;2022-07-25T00:52:57;24.98;;;22.45;;
59728;SDS011;45588;51.598;5.618;2022-07-25T00:55:22;26.48;;;23.35;;
59728;SDS011;45588;51.598;5.618;2022-07-25T00:57:49;26.88;;;24.02;;
59728;SDS011;45588;51.598;5.618;2022-07-25T01:00:14;27.02;;;24.15;;
59728;SDS011;45588;51.598;5.618;2022-07-25T01:02:40;27.48;;;23.23;;
59728;SDS011;45588;51.598;5.618;2022-07-25T01:05:06;28.65;;;24.10;;
59728;SDS011;45588;51.598;5.618;2022-07-25T01:07:34;28.30;;;24.67;;
59728;SDS011;45588;51.598;5.618;2022-07-25T01:10:02;27.67;;;24.77;;
59728;SDS011;45588;51.598;5.618;2022-07-25T01:12:28;26.40;;;23.65;;
59728;SDS011;45588;51.598;5.618;2022-07-25T01:14:53;27.90;;;25.15;;
59728;SDS011;45588;51.598;5.618;2022-07-25T01:17:18;28.83;;;25.95;;
59728;SDS011;45588;51.598;5.618;2022-07-25T01:19:43;28.27;;;24.30;;
59728;SDS011;45588;51.598;5.618;2022-07-25T01:22:10;28.73;;;25.50;;
59728;SDS011;45588;51.598;5.618;2022-07-25T01:24:35;27.00;;;24.25;;
59728;SDS011;45588;51.598;5.618;2022-07-25T01:27:03;29.65;;;26.60;;
59728;SDS011;45588;51.598;5.618;2022-07-25T01:29:28;27.33;;;24.15;;
59728;SDS011;45588;51.598;5.618;2022-07-25T01:31:53;27.48;;;23.35;;
59728;SDS011;45588;51.598;5.618;2022-07-25T01:34:19;25.58;;;22.00;;
59728;SDS011;45588;51.598;5.618;2022-07-25T01:36:44;28.02;;;24.73;;
59728;SDS011;45588;51.598;5.618;2022-07-25T01:39:09;28.42;;;25.15;;
59728;SDS011;45588;51.598;5.618;2022-07-25T01:41:35;26.98;;;24.25;;
59728;SDS011;45588;51.598;5.618;2022-07-25T01:44:00;26.33;;;23.27;;
59728;SDS011;45588;51.598;5.618;2022-07-25T01:46:25;30.25;;;27.02;;
59728;SDS011;45588;51.598;5.618;2022-07-25T01:48:51;26.92;;;24.08;;
59728;SDS011;45588;51.598;5.618;2022-07-25T01:51:16;28.33;;;25.35;;
59728;SDS011;45588;51.598;5.618;2022-07-25T01:53:41;28.08;;;25.15;;
59728;SDS011;45588;51.598;5.618;2022-07-25T01:56:07;29.05;;;25.60;;
59728;SDS011;45588;51.598;5.618;2022-07-25T01:58:32;27.92;;;24.60;;
59728;SDS011;45588;51.598;5.618;2022-07-25T02:00:57;27.55;;;23.58;;
59728;SDS011;45588;51.598;5.618;2022-07-25T02:03:22;29.10;;;23.73;;
59728;SDS011;45588;51.598;5.618;2022-07-25T02:05:54;25.05;;;22.30;;
59728;SDS011;45588;51.598;5.618;2022-07-25T02:08:20;24.58;;;21.95;;
59728;SDS011;45588;51.598;5.618;2022-07-25T02:10:45;24.50;;;21.15;;
59728;SDS011;45588;51.598;5.618;2022-07-25T02:13:11;24.58;;;21.90;;
59728;SDS011;45588;51.598;5.618;2022-07-25T02:15:36;24.63;;;21.85;;
59728;SDS011;45588;51.598;5.618;2022-07-25T02:18:01;25.75;;;20.67;;
59728;SDS011;45588;51.598;5.618;2022-07-25T02:20:27;21.50;;;19.08;;
59728;SDS011;45588;51.598;5.618;2022-07-25T02:22:52;25.33;;;20.23;;
59728;SDS011;45588;51.598;5.618;2022-07-25T02:25:17;21.55;;;19.45;;
59728;SDS011;45588;51.598;5.618;2022-07-25T02:27:43;21.70;;;18.73;;
59728;SDS011;45588;51.598;5.618;2022-07-25T02:30:08;19.92;;;17.00;;
59728;SDS011;45588;51.598;5.618;2022-07-25T02:32:34;21.95;;;18.73;;
59728;SDS011;45588;51.598;5.618;2022-07-25T02:34:59;20.45;;;18.40;;
59728;SDS011;45588;51.598;5.618;2022-07-25T02:37:24;21.75;;;18.17;;
59728;SDS011;45588;51.598;5.618;2022-07-25T02:39:49;19.50;;;17.60;;
59728;SDS011;45588;51.598;5.618;2022-07-25T02:42:15;20.50;;;18.48;;
59728;SDS011;45588;51.598;5.618;2022-07-25T02:44:40;22.15;;;17.67;;
59728;SDS011;45588;51.598;5.618;2022-07-25T02:47:06;21.40;;;18.95;;
59728;SDS011;45588;51.598;5.618;2022-07-25T02:49:31;22.00;;;19.15;;
59728;SDS011;45588;51.598;5.618;2022-07-25T02:51:56;21.90;;;19.60;;
59728;SDS011;45588;51.598;5.618;2022-07-25T02:54:22;22.20;;;20.08;;
59728;SDS011;45588;51.598;5.618;2022-07-25T02:56:47;21.85;;;18.95;;
59728;SDS011;45588;51.598;5.618;2022-07-25T02:59:13;21.80;;;18.65;;
59728;SDS011;45588;51.598;5.618;2022-07-25T03:01:38;25.10;;;20.02;;
59728;SDS011;45588;51.598;5.618;2022-07-25T03:04:03;21.98;;;19.63;;
59728;SDS011;45588;51.598;5.618;2022-07-25T03:06:29;21.70;;;19.50;;
59728;SDS011;45588;51.598;5.618;2022-07-25T03:08:54;22.05;;;19.80;;
59728;SDS011;45588;51.598;5.618;2022-07-25T03:11:19;24.75;;;19.23;;
59728;SDS011;45588;51.598;5.618;2022-07-25T03:13:45;24.13;;;19.77;;
59728;SDS011;45588;51.598;5.618;2022-07-25T03:16:10;21.73;;;19.13;;
59728;SDS011;45588;51.598;5.618;2022-07-25T03:18:35;21.83;;;18.55;;
59728;SDS011;45588;51.598;5.618;2022-07-25T03:21:01;21.52;;;17.55;;
59728;SDS011;45588;51.598;5.618;2022-07-25T03:23:26;24.25;;;18.25;;
59728;SDS011;45588;51.598;5.618;2022-07-25T03:25:52;22.67;;;19.45;;
59728;SDS011;45588;51.598;5.618;2022-07-25T03:28:18;22.83;;;19.70;;
59728;SDS011;45588;51.598;5.618;2022-07-25T03:30:43;20.58;;;18.58;;
59728;SDS011;45588;51.598;5.618;2022-07-25T03:33:08;23.73;;;17.60;;
59728;SDS011;45588;51.598;5.618;2022-07-25T03:35:35;19.50;;;17.42;;
59728;SDS011;45588;51.598;5.618;2022-07-25T03:38:01;19.40;;;16.13;;
59728;SDS011;45588;51.598;5.618;2022-07-25T03:40:27;18.08;;;15.88;;
59728;SDS011;45588;51.598;5.618;2022-07-25T03:42:52;17.90;;;15.82;;
59728;SDS011;45588;51.598;5.618;2022-07-25T03:45:17;19.77;;;16.23;;
59728;SDS011;45588;51.598;5.618;2022-07-25T03:47:42;18.00;;;15.75;;
59728;SDS011;45588;51.598;5.618;2022-07-25T03:50:08;20.33;;;16.77;;
59728;SDS011;45588;51.598;5.618;2022-07-25T03:52:33;18.08;;;16.17;;
59728;SDS011;45588;51.598;5.618;2022-07-25T03:54:59;18.85;;;17.05;;
59728;SDS011;45588;51.598;5.618;2022-07-25T03:57:24;16.65;;;15.10;;
59728;SDS011;45588;51.598;5.618;2022-07-25T03:59:49;18.48;;;16.50;;
59728;SDS011;45588;51.598;5.618;2022-07-25T04:02:14;18.08;;;16.27;;
59728;SDS011;45588;51.598;5.618;2022-07-25T04:04:40;18.00;;;15.25;;
59728;SDS011;45588;51.598;5.618;2022-07-25T04:07:06;16.25;;;14.55;;
59728;SDS011;45588;51.598;5.618;2022-07-25T04:09:31;15.93;;;14.25;;
59728;SDS011;45588;51.598;5.618;2022-07-25T04:11:56;16.42;;;14.68;;
59728;SDS011;45588;51.598;5.618;2022-07-25T04:14:21;15.52;;;13.60;;
59728;SDS011;45588;51.598;5.618;2022-07-25T04:16:47;16.08;;;14.45;;
59728;SDS011;45588;51.598;5.618;2022-07-25T04:19:12;17.95;;;14.27;;
59728;SDS011;45588;51.598;5.618;2022-07-25T04:21:37;16.52;;;14.70;;
59728;SDS011;45588;51.598;5.618;2022-07-25T04:24:03;16.73;;;14.00;;
59728;SDS011;45588;51.598;5.618;2022-07-25T04:26:28;14.90;;;13.38;;
59728;SDS011;45588;51.598;5.618;2022-07-25T04:28:53;16.13;;;14.07;;
59728;SDS011;45588;51.598;5.618;2022-07-25T04:31:21;16.38;;;14.38;;
59728;SDS011;45588;51.598;5.618;2022-07-25T04:33:46;17.13;;;14.40;;
59728;SDS011;45588;51.598;5.618;2022-07-25T04:36:12;15.25;;;13.65;;
59728;SDS011;45588;51.598;5.618;2022-07-25T04:38:37;17.65;;;14.55;;
59728;SDS011;45588;51.598;5.618;2022-07-25T04:41:02;17.83;;;15.88;;
59728;SDS011;45588;51.598;5.618;2022-07-25T04:43:28;16.98;;;15.27;;
59728;SDS011;45588;51.598;5.618;2022-07-25T04:45:53;18.90;;;16.63;;
59728;SDS011;45588;51.598;5.618;2022-07-25T04:48:19;21.15;;;15.95;;
59728;SDS011;45588;51.598;5.618;2022-07-25T04:50:44;18.67;;;15.30;;
59728;SDS011;45588;51.598;5.618;2022-07-25T04:53:09;16.17;;;14.48;;
59728;SDS011;45588;51.598;5.618;2022-07-25T04:55:35;17.15;;;15.00;;
59728;SDS011;45588;51.598;5.618;2022-07-25T04:58:02;16.40;;;14.77;;
59728;SDS011;45588;51.598;5.618;2022-07-25T05:00:28;16.00;;;14.20;;
59728;SDS011;45588;51.598;5.618;2022-07-25T05:02:53;15.48;;;14.00;;
59728;SDS011;45588;51.598;5.618;2022-07-25T05:05:18;16.27;;;14.02;;
59728;SDS011;45588;51.598;5.618;2022-07-25T05:07:44;15.63;;;13.00;;
59728;SDS011;45588;51.598;5.618;2022-07-25T05:10:10;21.02;;;13.98;;
59728;SDS011;45588;51.598;5.618;2022-07-25T05:12:35;15.00;;;12.80;;
59728;SDS011;45588;51.598;5.618;2022-07-25T05:15:01;14.50;;;12.90;;
59728;SDS011;45588;51.598;5.618;2022-07-25T05:17:27;15.65;;;13.07;;
59728;SDS011;45588;51.598;5.618;2022-07-25T05:19:53;16.40;;;13.20;;
59728;SDS011;45588;51.598;5.618;2022-07-25T05:22:18;14.20;;;12.70;;
59728;SDS011;45588;51.598;5.618;2022-07-25T05:24:43;17.45;;;12.63;;
59728;SDS011;45588;51.598;5.618;2022-07-25T05:27:09;22.08;;;13.32;;
59728;SDS011;45588;51.598;5.618;2022-07-25T05:29:34;17.52;;;13.35;;
59728;SDS011;45588;51.598;5.618;2022-07-25T05:32:00;13.30;;;11.50;;
59728;SDS011;45588;51.598;5.618;2022-07-25T05:34:25;18.13;;;12.52;;
59728;SDS011;45588;51.598;5.618;2022-07-25T05:36:50;18.58;;;12.48;;
59728;SDS011;45588;51.598;5.618;2022-07-25T05:39:16;13.60;;;12.20;;
59728;SDS011;45588;51.598;5.618;2022-07-25T05:41:41;19.70;;;12.73;;
59728;SDS011;45588;51.598;5.618;2022-07-25T05:44:06;14.88;;;11.95;;
59728;SDS011;45588;51.598;5.618;2022-07-25T05:46:32;16.42;;;12.20;;
59728;SDS011;45588;51.598;5.618;2022-07-25T05:48:57;12.90;;;11.68;;
59728;SDS011;45588;51.598;5.618;2022-07-25T05:51:23;15.70;;;12.60;;
59728;SDS011;45588;51.598;5.618;2022-07-25T05:53:48;18.02;;;11.65;;
59728;SDS011;45588;51.598;5.618;2022-07-25T05:56:13;13.15;;;11.85;;
59728;SDS011;45588;51.598;5.618;2022-07-25T05:58:39;13.40;;;11.93;;
59728;SDS011;45588;51.598;5.618;2022-07-25T06:01:10;13.57;;;11.60;;
59728;SDS011;45588;51.598;5.618;2022-07-25T06:03:36;16.27;;;12.25;;
59728;SDS011;45588;51.598;5.618;2022-07-25T06:06:02;16.10;;;13.10;;
59728;SDS011;45588;51.598;5.618;2022-07-25T06:08:27;13.77;;;12.32;;
59728;SDS011;45588;51.598;5.618;2022-07-25T06:10:54;14.45;;;12.95;;
59728;SDS011;45588;51.598;5.618;2022-07-25T06:13:23;13.98;;;12.02;;
59728;SDS011;45588;51.598;5.618;2022-07-25T06:15:48;16.23;;;12.85;;
59728;SDS011;45588;51.598;5.618;2022-07-25T06:18:14;13.90;;;12.45;;
59728;SDS011;45588;51.598;5.618;2022-07-25T06:20:39;12.85;;;11.43;;
59728;SDS011;45588;51.598;5.618;2022-07-25T06:23:04;16.23;;;12.32;;
59728;SDS011;45588;51.598;5.618;2022-07-25T06:25:30;13.10;;;11.80;;
59728;SDS011;45588;51.598;5.618;2022-07-25T06:27:55;13.95;;;12.43;;
59728;SDS011;45588;51.598;5.618;2022-07-25T06:30:20;14.77;;;12.88;;
59728;SDS011;45588;51.598;5.618;2022-07-25T06:32:48;14.05;;;12.60;;
59728;SDS011;45588;51.598;5.618;2022-07-25T06:35:14;16.10;;;13.30;;
59728;SDS011;45588;51.598;5.618;2022-07-25T06:37:40;15.52;;;12.27;;
59728;SDS011;45588;51.598;5.618;2022-07-25T06:40:06;13.77;;;12.38;;
59728;SDS011;45588;51.598;5.618;2022-07-25T06:42:32;15.80;;;11.98;;
59728;SDS011;45588;51.598;5.618;2022-07-25T06:45:02;13.65;;;11.80;;
59728;SDS011;45588;51.598;5.618;2022-07-25T06:47:28;13.52;;;12.02;;
59728;SDS011;45588;51.598;5.618;2022-07-25T06:49:54;13.45;;;12.10;;
59728;SDS011;45588;51.598;5.618;2022-07-25T06:52:19;13.75;;;12.15;;
59728;SDS011;45588;51.598;5.618;2022-07-25T06:54:44;13.63;;;12.23;;
59728;SDS011;45588;51.598;5.618;2022-07-25T06:57:10;15.20;;;12.02;;
59728;SDS011;45588;51.598;5.618;2022-07-25T06:59:35;13.60;;;12.20;;
59728;SDS011;45588;51.598;5.618;2022-07-25T07:02:00;20.23;;;12.10;;
59728;SDS011;45588;51.598;5.618;2022-07-25T07:04:26;17.23;;;11.38;;
59728;SDS011;45588;51.598;5.618;2022-07-25T07:06:51;13.77;;;11.35;;
59728;SDS011;45588;51.598;5.618;2022-07-25T07:09:16;12.65;;;11.35;;
59728;SDS011;45588;51.598;5.618;2022-07-25T07:11:42;16.60;;;11.70;;
59728;SDS011;45588;51.598;5.618;2022-07-25T07:14:07;12.35;;;11.02;;
59728;SDS011;45588;51.598;5.618;2022-07-25T07:16:32;15.10;;;10.98;;
59728;SDS011;45588;51.598;5.618;2022-07-25T07:18:57;19.20;;;11.35;;
59728;SDS011;45588;51.598;5.618;2022-07-25T07:21:23;15.50;;;11.05;;
59728;SDS011;45588;51.598;5.618;2022-07-25T07:23:49;14.43;;;10.77;;
59728;SDS011;45588;51.598;5.618;2022-07-25T07:26:14;15.52;;;10.82;;
59728;SDS011;45588;51.598;5.618;2022-07-25T07:28:40;13.05;;;11.02;;
59728;SDS011;45588;51.598;5.618;2022-07-25T07:31:05;14.40;;;10.27;;
59728;SDS011;45588;51.598;5.618;2022-07-25T07:33:30;11.50;;;9.75;;
59728;SDS011;45588;51.598;5.618;2022-07-25T07:35:59;13.85;;;10.43;;
59728;SDS011;45588;51.598;5.618;2022-07-25T07:38:26;10.52;;;8.65;;
59728;SDS011;45588;51.598;5.618;2022-07-25T07:40:52;15.77;;;8.95;;
59728;SDS011;45588;51.598;5.618;2022-07-25T07:43:17;10.85;;;8.30;;
59728;SDS011;45588;51.598;5.618;2022-07-25T07:45:43;12.88;;;8.45;;
59728;SDS011;45588;51.598;5.618;2022-07-25T07:48:08;11.82;;;7.60;;
59728;SDS011;45588;51.598;5.618;2022-07-25T07:50:34;9.40;;;7.78;;
59728;SDS011;45588;51.598;5.618;2022-07-25T07:53:00;10.10;;;7.07;;
59728;SDS011;45588;51.598;5.618;2022-07-25T07:55:25;10.43;;;7.55;;
59728;SDS011;45588;51.598;5.618;2022-07-25T07:58:16;10.57;;;7.07;;
59728;SDS011;45588;51.598;5.618;2022-07-25T08:00:43;12.07;;;7.45;;
59728;SDS011;45588;51.598;5.618;2022-07-25T08:03:11;9.77;;;7.03;;
59728;SDS011;45588;51.598;5.618;2022-07-25T08:05:38;8.30;;;7.30;;
59728;SDS011;45588;51.598;5.618;2022-07-25T08:08:05;11.75;;;7.38;;
59728;SDS011;45588;51.598;5.618;2022-07-25T08:10:32;10.05;;;7.55;;
59728;SDS011;45588;51.598;5.618;2022-07-25T08:13:00;7.80;;;6.10;;
59728;SDS011;45588;51.598;5.618;2022-07-25T08:15:27;9.65;;;6.65;;
59728;SDS011;45588;51.598;5.618;2022-07-25T08:17:53;12.20;;;5.68;;
59728;SDS011;45588;51.598;5.618;2022-07-25T08:20:18;8.50;;;5.22;;
59728;SDS011;45588;51.598;5.618;2022-07-25T08:22:47;9.30;;;4.03;;
59728;SDS011;45588;51.598;5.618;2022-07-25T08:25:14;5.57;;;2.42;;
59728;SDS011;45588;51.598;5.618;2022-07-25T08:27:41;8.15;;;2.45;;
59728;SDS011;45588;51.598;5.618;2022-07-25T08:30:08;8.35;;;2.35;;
59728;SDS011;45588;51.598;5.618;2022-07-25T08:32:34;10.50;;;2.35;;
59728;SDS011;45588;51.598;5.618;2022-07-25T08:35:14;6.70;;;2.05;;
59728;SDS011;45588;51.598;5.618;2022-07-25T08:37:39;10.18;;;3.03;;
59728;SDS011;45588;51.598;5.618;2022-07-25T08:40:05;12.30;;;2.67;;
59728;SDS011;45588;51.598;5.618;2022-07-25T08:42:32;7.18;;;2.53;;
59728;SDS011;45588;51.598;5.618;2022-07-25T08:44:58;31.13;;;3.13;;
59728;SDS011;45588;51.598;5.618;2022-07-25T08:47:27;10.90;;;2.42;;
59728;SDS011;45588;51.598;5.618;2022-07-25T08:49:53;8.65;;;1.90;;
59728;SDS011;45588;51.598;5.618;2022-07-25T08:52:19;10.50;;;2.10;;
59728;SDS011;45588;51.598;5.618;2022-07-25T08:54:46;9.13;;;1.90;;
59728;SDS011;45588;51.598;5.618;2022-07-25T08:57:12;3.97;;;1.80;;
59728;SDS011;45588;51.598;5.618;2022-07-25T08:59:37;5.63;;;1.83;;
59728;SDS011;45588;51.598;5.618;2022-07-25T09:02:02;8.40;;;2.35;;
59728;SDS011;45588;51.598;5.618;2022-07-25T09:04:32;4.35;;;2.00;;
59728;SDS011;45588;51.598;5.618;2022-07-25T09:06:59;4.25;;;1.80;;
59728;SDS011;45588;51.598;5.618;2022-07-25T09:09:29;4.78;;;2.00;;
59728;SDS011;45588;51.598;5.618;2022-07-25T09:11:55;6.90;;;2.30;;
59728;SDS011;45588;51.598;5.618;2022-07-25T09:14:21;7.30;;;2.10;;
59728;SDS011;45588;51.598;5.618;2022-07-25T09:16:46;4.88;;;2.00;;
59728;SDS011;45588;51.598;5.618;2022-07-25T09:19:12;5.72;;;1.98;;
59728;SDS011;45588;51.598;5.618;2022-07-25T09:21:40;5.65;;;2.10;;
59728;SDS011;45588;51.598;5.618;2022-07-25T09:24:07;4.75;;;1.70;;
59728;SDS011;45588;51.598;5.618;2022-07-25T09:26:49;4.38;;;2.30;;
59728;SDS011;45588;51.598;5.618;2022-07-25T09:29:22;7.13;;;2.53;;
59728;SDS011;45588;51.598;5.618;2022-07-25T09:31:50;5.78;;;1.70;;
59728;SDS011;45588;51.598;5.618;2022-07-25T09:37:05;8.00;;;2.10;;
59728;SDS011;45588;51.598;5.618;2022-07-25T09:39:46;4.65;;;2.40;;
59728;SDS011;45588;51.598;5.618;2022-07-25T09:42:13;4.70;;;2.00;;
59728;SDS011;45588;51.598;5.618;2022-07-25T09:47:25;5.75;;;2.72;;
59728;SDS011;45588;51.598;5.618;2022-07-25T09:49:51;10.10;;;2.60;;
59728;SDS011;45588;51.598;5.618;2022-07-25T09:52:17;6.72;;;2.53;;
59728;SDS011;45588;51.598;5.618;2022-07-25T09:54:42;5.68;;;2.35;;
59728;SDS011;45588;51.598;5.618;2022-07-25T09:57:08;4.97;;;2.58;;
59728;SDS011;45588;51.598;5.618;2022-07-25T09:59:34;8.75;;;2.42;;
59728;SDS011;45588;51.598;5.618;2022-07-25T10:02:08;4.93;;;2.45;;
59728;SDS011;45588;51.598;5.618;2022-07-25T10:04:44;6.70;;;2.65;;
59728;SDS011;45588;51.598;5.618;2022-07-25T10:07:15;8.38;;;2.80;;
59728;SDS011;45588;51.598;5.618;2022-07-25T10:09:45;11.05;;;2.90;;
59728;SDS011;45588;51.598;5.618;2022-07-25T10:12:12;6.85;;;2.83;;
59728;SDS011;45588;51.598;5.618;2022-07-25T10:14:42;7.10;;;3.13;;
59728;SDS011;45588;51.598;5.618;2022-07-25T10:17:07;6.50;;;2.80;;
59728;SDS011;45588;51.598;5.618;2022-07-25T10:19:45;6.93;;;2.70;;
59728;SDS011;45588;51.598;5.618;2022-07-25T10:22:12;8.52;;;3.53;;
59728;SDS011;45588;51.598;5.618;2022-07-25T10:24:41;6.78;;;3.05;;
59728;SDS011;45588;51.598;5.618;2022-07-25T10:27:09;7.75;;;3.13;;
59728;SDS011;45588;51.598;5.618;2022-07-25T10:29:38;10.02;;;3.20;;
59728;SDS011;45588;51.598;5.618;2022-07-25T10:32:05;7.18;;;3.70;;
59728;SDS011;45588;51.598;5.618;2022-07-25T10:34:36;6.32;;;2.70;;
59728;SDS011;45588;51.598;5.618;2022-07-25T10:37:09;6.10;;;2.90;;
59728;SDS011;45588;51.598;5.618;2022-07-25T10:39:44;5.85;;;3.28;;
59728;SDS011;45588;51.598;5.618;2022-07-25T10:42:14;7.43;;;3.55;;
59728;SDS011;45588;51.598;5.618;2022-07-25T10:44:42;6.55;;;3.75;;
59728;SDS011;45588;51.598;5.618;2022-07-25T10:47:11;11.18;;;3.08;;
59728;SDS011;45588;51.598;5.618;2022-07-25T10:49:39;6.55;;;3.10;;
59728;SDS011;45588;51.598;5.618;2022-07-25T10:52:14;8.50;;;3.20;;
59728;SDS011;45588;51.598;5.618;2022-07-25T10:54:50;7.57;;;2.80;;
59728;SDS011;45588;51.598;5.618;2022-07-25T10:57:17;5.70;;;2.80;;
59728;SDS011;45588;51.598;5.618;2022-07-25T10:59:42;7.93;;;3.30;;
59728;SDS011;45588;51.598;5.618;2022-07-25T11:02:08;9.55;;;3.38;;
59728;SDS011;45588;51.598;5.618;2022-07-25T11:04:40;5.32;;;2.67;;
59728;SDS011;45588;51.598;5.618;2022-07-25T11:07:13;6.63;;;3.22;;
59728;SDS011;45588;51.598;5.618;2022-07-25T11:09:41;6.38;;;2.65;;
59728;SDS011;45588;51.598;5.618;2022-07-25T11:12:08;7.10;;;2.80;;
59728;SDS011;45588;51.598;5.618;2022-07-25T11:17:20;10.63;;;3.50;;
59728;SDS011;45588;51.598;5.618;2022-07-25T11:22:28;7.88;;;3.05;;
59728;SDS011;45588;51.598;5.618;2022-07-25T11:24:55;6.95;;;3.22;;
59728;SDS011;45588;51.598;5.618;2022-07-25T11:27:25;7.57;;;3.65;;
59728;SDS011;45588;51.598;5.618;2022-07-25T11:30:14;5.63;;;2.75;;
59728;SDS011;45588;51.598;5.618;2022-07-25T11:32:42;7.55;;;3.38;;
59728;SDS011;45588;51.598;5.618;2022-07-25T11:35:09;8.57;;;3.42;;
59728;SDS011;45588;51.598;5.618;2022-07-25T11:37:37;6.40;;;3.70;;
59728;SDS011;45588;51.598;5.618;2022-07-25T11:40:05;7.50;;;3.97;;
59728;SDS011;45588;51.598;5.618;2022-07-25T11:42:41;8.70;;;3.83;;
59728;SDS011;45588;51.598;5.618;2022-07-25T11:45:24;6.88;;;4.00;;
59728;SDS011;45588;51.598;5.618;2022-07-25T11:48:05;9.35;;;4.18;;
59728;SDS011;45588;51.598;5.618;2022-07-25T11:50:33;7.40;;;3.88;;
59728;SDS011;45588;51.598;5.618;2022-07-25T11:53:01;8.57;;;3.72;;
59728;SDS011;45588;51.598;5.618;2022-07-25T11:55:29;5.65;;;3.97;;
59728;SDS011;45588;51.598;5.618;2022-07-25T11:57:58;8.65;;;4.22;;
59728;SDS011;45588;51.598;5.618;2022-07-25T12:00:25;11.23;;;4.93;;
59728;SDS011;45588;51.598;5.618;2022-07-25T12:02:51;7.32;;;4.75;;
59728;SDS011;45588;51.598;5.618;2022-07-25T12:05:17;8.50;;;5.30;;
59728;SDS011;45588;51.598;5.618;2022-07-25T12:07:51;9.85;;;5.40;;
59728;SDS011;45588;51.598;5.618;2022-07-25T12:10:23;12.38;;;5.63;;
59728;SDS011;45588;51.598;5.618;2022-07-25T12:12:56;7.85;;;5.60;;
59728;SDS011;45588;51.598;5.618;2022-07-25T12:15:23;8.48;;;5.22;;
59728;SDS011;45588;51.598;5.618;2022-07-25T12:17:54;7.03;;;5.85;;
59728;SDS011;45588;51.598;5.618;2022-07-25T12:20:21;12.70;;;6.55;;
59728;SDS011;45588;51.598;5.618;2022-07-25T12:22:53;12.43;;;5.55;;
59728;SDS011;45588;51.598;5.618;2022-07-25T12:25:20;9.88;;;5.30;;
59728;SDS011;45588;51.598;5.618;2022-07-25T12:27:46;7.70;;;5.22;;
59728;SDS011;45588;51.598;5.618;2022-07-25T12:30:12;8.48;;;4.68;;
59728;SDS011;45588;51.598;5.618;2022-07-25T12:32:38;12.25;;;4.85;;
59728;SDS011;45588;51.598;5.618;2022-07-25T12:35:04;9.88;;;5.25;;
59728;SDS011;45588;51.598;5.618;2022-07-25T12:37:31;11.25;;;6.55;;
59728;SDS011;45588;51.598;5.618;2022-07-25T12:39:56;12.60;;;6.57;;
59728;SDS011;45588;51.598;5.618;2022-07-25T12:42:22;9.57;;;6.30;;
59728;SDS011;45588;51.598;5.618;2022-07-25T12:44:48;8.27;;;6.22;;
59728;SDS011;45588;51.598;5.618;2022-07-25T12:47:13;8.43;;;6.18;;
59728;SDS011;45588;51.598;5.618;2022-07-25T12:49:38;8.35;;;5.75;;
59728;SDS011;45588;51.598;5.618;2022-07-25T12:52:04;9.70;;;5.28;;
59728;SDS011;45588;51.598;5.618;2022-07-25T12:54:29;10.65;;;5.25;;
59728;SDS011;45588;51.598;5.618;2022-07-25T12:56:55;9.90;;;5.22;;
59728;SDS011;45588;51.598;5.618;2022-07-25T12:59:20;9.15;;;5.47;;
59728;SDS011;45588;51.598;5.618;2022-07-25T13:01:45;9.07;;;5.40;;
59728;SDS011;45588;51.598;5.618;2022-07-25T13:04:11;9.85;;;5.95;;
59728;SDS011;45588;51.598;5.618;2022-07-25T13:06:36;12.57;;;6.72;;
59728;SDS011;45588;51.598;5.618;2022-07-25T13:09:02;7.22;;;6.05;;
59728;SDS011;45588;51.598;5.618;2022-07-25T13:11:28;10.98;;;6.20;;
59728;SDS011;45588;51.598;5.618;2022-07-25T13:13:53;9.30;;;6.07;;
59728;SDS011;45588;51.598;5.618;2022-07-25T13:16:18;11.23;;;6.88;;
59728;SDS011;45588;51.598;5.618;2022-07-25T13:18:44;10.93;;;5.93;;
59728;SDS011;45588;51.598;5.618;2022-07-25T13:21:09;11.60;;;5.70;;
59728;SDS011;45588;51.598;5.618;2022-07-25T13:23:35;9.70;;;5.30;;
59728;SDS011;45588;51.598;5.618;2022-07-25T13:26:01;10.00;;;5.20;;
59728;SDS011;45588;51.598;5.618;2022-07-25T13:28:26;11.52;;;5.20;;
59728;SDS011;45588;51.598;5.618;2022-07-25T13:30:52;6.47;;;4.25;;
59728;SDS011;45588;51.598;5.618;2022-07-25T13:33:17;8.48;;;3.80;;
59728;SDS011;45588;51.598;5.618;2022-07-25T13:35:43;8.35;;;4.53;;
59728;SDS011;45588;51.598;5.618;2022-07-25T13:38:09;8.50;;;4.32;;
59728;SDS011;45588;51.598;5.618;2022-07-25T13:40:35;11.65;;;4.75;;
59728;SDS011;45588;51.598;5.618;2022-07-25T13:43:05;11.37;;;3.60;;
59728;SDS011;45588;51.598;5.618;2022-07-25T13:45:30;8.32;;;3.00;;
59728;SDS011;45588;51.598;5.618;2022-07-25T13:47:55;9.70;;;3.90;;
59728;SDS011;45588;51.598;5.618;2022-07-25T13:50:21;12.20;;;4.07;;
59728;SDS011;45588;51.598;5.618;2022-07-25T13:52:46;9.93;;;4.50;;
59728;SDS011;45588;51.598;5.618;2022-07-25T13:55:11;8.77;;;4.22;;
59728;SDS011;45588;51.598;5.618;2022-07-25T13:57:37;9.00;;;4.05;;
59728;SDS011;45588;51.598;5.618;2022-07-25T14:00:03;8.82;;;3.78;;
59728;SDS011;45588;51.598;5.618;2022-07-25T14:02:29;9.43;;;4.78;;
59728;SDS011;45588;51.598;5.618;2022-07-25T14:04:54;10.77;;;5.18;;
59728;SDS011;45588;51.598;5.618;2022-07-25T14:07:19;14.60;;;5.13;;
59728;SDS011;45588;51.598;5.618;2022-07-25T14:09:45;9.23;;;4.20;;
59728;SDS011;45588;51.598;5.618;2022-07-25T14:12:10;10.25;;;4.43;;
59728;SDS011;45588;51.598;5.618;2022-07-25T14:14:35;8.43;;;4.72;;
59728;SDS011;45588;51.598;5.618;2022-07-25T14:17:00;15.98;;;5.18;;
59728;SDS011;45588;51.598;5.618;2022-07-25T14:19:26;11.52;;;4.95;;
59728;SDS011;45588;51.598;5.618;2022-07-25T14:21:51;10.13;;;5.00;;
59728;SDS011;45588;51.598;5.618;2022-07-25T14:24:16;11.23;;;4.65;;
59728;SDS011;45588;51.598;5.618;2022-07-25T14:26:42;9.57;;;4.13;;
59728;SDS011;45588;51.598;5.618;2022-07-25T14:29:07;8.18;;;4.50;;
59728;SDS011;45588;51.598;5.618;2022-07-25T14:31:35;11.30;;;4.60;;
59728;SDS011;45588;51.598;5.618;2022-07-25T14:34:01;8.50;;;4.13;;
59728;SDS011;45588;51.598;5.618;2022-07-25T14:36:27;12.50;;;4.20;;
59728;SDS011;45588;51.598;5.618;2022-07-25T14:38:52;10.15;;;4.25;;